Latest Weather Observations for Holsworthy

IDN60901

Issued at 4:01 am EST Friday 22 June 2018 (issued every 10 minutes, with the page automatically refreshed every 10 minutes)

About weather observations | Map of Sydney area stations | Latest observations for Sydney area | Other Formats
Station Details ID: 066161 Name: HOLSWORTHY AERODROME AWS Lat: -33.99 Lon: 150.95 Height: 68.16 m
Data from the previous 72 hours. | See also: Recent months at Holsworthy
Date/Time
EST
Temp
°C
App
Temp
°C
Dew
Point
°C
Rel
Hum
%
Delta-T
°C
Wind Press
QNH
hPa
Press
MSL
hPa
Rain since
9am
mm
Dir  Spd
km/h
Gust
km/h
Spd
kts
Gust
kts
22/04:00am 7.1 3.9 6.7 97 0.2 SW 13 15 7 8 1027.2 1027.3 0.2
22/03:30am 7.0 3.8 6.9 99 0.0 SW 13 15 7 8 1027.3 1027.4 0.2
22/03:00am 6.1 3.1 5.8 98 0.1 WSW 11 13 6 7 1027.4 1027.5 0.2
22/02:30am 5.7 3.4 5.0 95 0.3 W 6 9 3 5 1027.7 1027.8 0.2
22/02:00am 6.6 5.7 5.9 95 0.3 CALM 0 0 0 0 1027.7 1027.8 0.2
22/01:30am 6.6 4.5 5.9 95 0.3 W 6 6 3 3 1027.6 1027.7 0.2
22/01:00am 6.7 5.4 5.8 94 0.4 W 2 6 1 3 1027.6 1027.7 0.2
22/12:30am 8.1 5.8 7.5 96 0.3 SSW 9 11 5 6 1027.7 1027.8 0.2
22/12:00am 8.4 7.0 7.3 93 0.5 SW 4 6 2 3 1028.0 1028.1 0.2
 
Date/Time
EST
Temp
°C
App
Temp
°C
Dew
Point
°C
Rel
Hum
%
Delta-T
°C
Wind Press
QNH
hPa
Press
MSL
hPa
Rain since
9am
mm
Dir  Spd
km/h
Gust
km/h
Spd
kts
Gust
kts
21/11:30pm 8.8 7.0 7.9 94 0.4 SW 7 9 4 5 1028.0 1028.1 0.2
21/11:00pm 9.3 7.1 7.7 90 0.8 SW 9 11 5 6 1028.0 1028.1 0.2
21/10:30pm 10.9 9.0 9.0 88 0.9 SW 9 11 5 6 1028.1 1028.2 0.2
21/10:00pm 12.3 10.3 10.2 87 1.1 SW 11 13 6 7 1028.1 1028.2 0.2
21/09:30pm 11.6 9.6 10.0 90 0.8 SSW 11 13 6 7 1028.1 1028.2 0.2
21/09:00pm 11.2 9.2 10.1 93 0.6 SW 11 15 6 8 1028.0 1028.1 0.2
21/08:30pm 11.6 9.6 10.0 90 0.8 SW 11 19 6 10 1028.0 1028.1 0.2
21/08:00pm 10.2 8.4 9.3 94 0.4 WSW 9 20 5 11 1027.9 1028.0 0.2
21/07:30pm 10.1 8.3 8.0 87 1.0 WSW 7 7 4 4 1027.7 1027.8 0.2
21/07:00pm 13.0 11.4 10.2 83 1.4 SE 9 11 5 6 1027.5 1027.6 0.2
21/06:30pm 11.7 10.5 9.4 86 1.2 SSE 6 7 3 4 1027.3 1027.4 0.2
21/06:00pm 13.1 11.7 9.7 80 1.7 ESE 7 9 4 5 1027.1 1027.2 0.2
21/05:30pm 13.8 11.9 10.4 80 1.8 ENE 11 15 6 8 1026.7 1026.8 0.2
21/05:00pm 14.2 12.7 10.4 78 2.0 E 9 13 5 7 1026.7 1026.8 0.2
21/04:30pm 14.8 13.2 10.2 74 2.4 ENE 9 13 5 7 1026.6 1026.7 0.2
21/04:00pm 15.7 14.7 10.2 70 2.9 E 6 7 3 4 1026.6 1026.7 0.2
21/03:30pm 15.8 13.8 10.1 69 3.0 SE 11 15 6 8 1026.4 1026.5 0.2
21/03:00pm 16.0 14.7 9.9 67 3.2 E 7 9 4 5 1026.3 1026.4 0.2
21/02:30pm 16.2 14.1 9.6 65 3.4 SE 11 15 6 8 1026.4 1026.5 0.2
21/02:00pm 16.5 15.4 9.9 65 3.5 SSE 6 13 3 7 1026.5 1026.6 0.2
21/01:30pm 16.2 14.4 10.9 71 2.8 ENE 11 17 6 9 1026.7 1026.8 0.2
21/01:00pm 15.5 14.3 10.3 71 2.7 E 7 13 4 7 1027.0 1027.1 0.2
21/12:30pm 14.9 13.4 8.6 66 3.2 S 6 11 3 6 1027.3 1027.4 0.2
21/12:00pm 14.2 12.3 7.7 65 3.2 W 7 9 4 5 1027.8 1027.9 0.2
21/11:30am 13.5 11.7 7.1 65 3.1 W 6 9 3 5 1028.3 1028.4 0.2
21/11:00am 12.8 10.8 7.0 68 2.8 WSW 7 9 4 5 1028.7 1028.8 0.2
21/10:30am 12.2 9.7 6.7 69 2.6 W 9 13 5 7 1028.9 1029.0 0.2
21/10:00am 11.6 9.2 6.9 73 2.2 W 9 11 5 6 1028.9 1029.0 0.0
21/09:30am 10.7 8.3 7.2 79 1.7 W 9 13 5 7 1028.8 1028.9 0.0
21/09:26am 10.6 8.3 7.5 81 1.5 W 9 11 5 6 1028.9 1029.0 0.0
21/09:09am 10.5 8.5 7.2 80 1.6 WSW 7 9 4 5 1029.0 1029.1 0.0
21/09:00am 10.5 8.4 6.6 77 1.8 WSW 7 11 4 6 1028.9 1029.0 0.0
21/08:30am 10.5 8.4 6.5 76 1.9 W 7 11 4 6 1028.5 1028.6 0.0
21/08:00am 10.3 8.2 6.5 77 1.8 W 7 11 4 6 1028.3 1028.4 0.0
21/07:30am 10.2 8.1 6.5 78 1.7 W 7 9 4 5 1028.1 1028.2 0.0
21/07:00am 10.2 8.1 6.7 79 1.6 WSW 7 11 4 6 1027.6 1027.7 0.0
21/06:30am 10.3 8.2 6.5 77 1.8 SW 7 9 4 5 1027.4 1027.5 0.0
21/06:00am 10.4 7.5 6.4 76 1.9 WSW 11 15 6 8 1027.1 1027.2 0.0
21/05:30am 10.4 7.5 6.5 77 1.8 WSW 11 13 6 7 1026.8 1026.9 0.0
21/05:00am 10.5 7.6 6.6 77 1.8 WSW 11 15 6 8 1026.5 1026.6 0.0
21/04:30am 10.4 7.5 6.7 78 1.7 WSW 11 13 6 7 1026.5 1026.6 0.0
21/04:00am 10.3 7.5 6.8 79 1.6 WSW 11 13 6 7 1026.5 1026.6 0.0
21/03:30am 10.3 7.9 7.0 80 1.6 SW 9 13 5 7 1026.5 1026.6 0.0
21/03:00am 10.4 7.6 7.1 80 1.6 WSW 11 15 6 8 1026.6 1026.7 0.0
21/02:30am 10.5 7.8 7.2 80 1.6 WSW 11 15 6 8 1026.8 1026.9 0.0
21/02:00am 10.4 7.3 7.1 80 1.6 WSW 13 17 7 9 1026.7 1026.8 0.0
21/01:30am 10.4 8.1 7.3 81 1.5 WSW 9 13 5 7 1027.0 1027.1 0.0
21/01:00am 10.7 8.4 7.6 81 1.5 WSW 9 13 5 7 1027.1 1027.2 0.0
21/12:30am 10.9 8.6 7.6 80 1.6 WSW 9 11 5 6 1027.3 1027.4 0.0
21/12:00am 11.1 8.9 7.8 80 1.6 WSW 9 11 5 6 1027.4 1027.5 0.0
 
Date/Time
EST
Temp
°C
App
Temp
°C
Dew
Point
°C
Rel
Hum
%
Delta-T
°C
Wind Press
QNH
hPa
Press
MSL
hPa
Rain since
9am
mm
Dir  Spd
km/h
Gust
km/h
Spd
kts
Gust
kts
20/11:30pm 11.3 9.5 7.8 79 1.7 W 7 11 4 6 1027.5 1027.6 0.0
20/11:00pm 11.4 9.5 7.7 78 1.8 WSW 7 9 4 5 1027.4 1027.5 0.0
20/10:30pm 11.7 9.9 8.0 78 1.8 WSW 7 9 4 5 1027.6 1027.7 0.0
20/10:00pm 11.8 10.0 8.1 78 1.8 SW 7 11 4 6 1027.9 1028.0 0.0
20/09:30pm 12.2 10.0 7.9 75 2.1 WSW 9 11 5 6 1028.0 1028.1 0.0
20/09:00pm 13.0 10.8 7.7 70 2.6 W 9 13 5 7 1028.0 1028.1 0.0
20/08:30pm 13.4 11.2 7.8 69 2.8 SSW 9 15 5 8 1027.9 1028.0 0.0
20/08:00pm 13.8 11.2 7.8 67 3.0 S 11 17 6 9 1027.9 1028.0 0.0
20/07:30pm 13.5 10.7 8.4 71 2.6 SSE 13 20 7 11 1027.7 1027.8 0.0
20/07:00pm 13.4 9.7 8.0 70 2.7 SSE 17 26 9 14 1027.4 1027.5 0.0
20/06:30pm 13.3 10.4 8.0 70 2.6 S 13 17 7 9 1027.3 1027.4 0.0
20/06:00pm 13.3 10.5 8.4 72 2.4 SSE 13 17 7 9 1027.1 1027.2 0.0
20/05:30pm 13.7 10.5 8.5 71 2.6 SSE 15 22 8 12 1027.1 1027.2 0.0
20/05:00pm 13.9 10.3 8.5 70 2.7 SSE 17 24 9 13 1027.2 1027.3 0.0
20/04:30pm 14.3 9.7 8.3 67 3.0 SSE 22 35 12 19 1027.1 1027.2 0.0
20/04:00pm 15.6 11.4 7.6 59 4.0 S 19 26 10 14 1026.7 1026.8 0.0
20/03:30pm 15.9 11.7 8.2 60 3.9 S 20 30 11 16 1026.5 1026.6 0.0
20/03:00pm 15.9 11.7 8.4 61 3.8 SSE 20 30 11 16 1026.4 1026.5 0.0
20/02:30pm 16.2 12.2 8.2 59 4.1 S 19 28 10 15 1026.3 1026.4 0.0
20/02:00pm 16.6 12.3 7.8 56 4.4 SSE 20 32 11 17 1026.2 1026.3 0.0
20/01:30pm 16.6 12.7 8.6 59 4.1 SSE 19 28 10 15 1026.3 1026.4 0.0
20/01:00pm 16.6 12.9 9.3 62 3.8 S 19 28 10 15 1026.5 1026.6 0.0
20/12:30pm 16.5 13.2 9.7 64 3.6 S 17 24 9 13 1026.8 1026.9 0.0
20/12:00pm 15.5 13.1 8.7 64 3.5 S 11 20 6 11 1027.1 1027.2 0.0
20/11:30am 15.9 13.2 8.9 63 3.6 S 13 20 7 11 1027.5 1027.6 0.0
20/11:00am 15.6 13.1 9.7 68 3.1 SW 13 20 7 11 1027.7 1027.8 0.0
20/10:30am 14.3 12.2 9.7 74 2.4 SW 11 17 6 9 1027.9 1028.0 0.0
20/10:00am 13.4 10.4 9.1 75 2.2 SW 15 22 8 12 1028.0 1028.1 0.0
20/09:30am 12.6 9.6 9.1 79 1.8 WSW 15 20 8 11 1027.9 1028.0 0.0
20/09:00am 11.7 9.0 9.1 84 1.3 WSW 13 19 7 10 1027.9 1028.0 14.0
20/08:30am 10.5 7.7 8.4 87 1.0 SW 13 19 7 10 1027.7 1027.8 14.0
20/08:00am 9.5 7.0 8.1 91 0.7 SW 11 15 6 8 1027.7 1027.8 14.0
20/07:30am 9.4 6.5 8.2 92 0.6 SW 13 17 7 9 1027.6 1027.7 14.0
20/07:00am 8.6 5.9 7.4 92 0.6 W 11 13 6 7 1027.5 1027.6 14.0
20/06:30am 9.5 7.4 8.3 92 0.6 SW 9 11 5 6 1027.2 1027.3 13.8
20/06:00am 9.0 6.7 7.6 91 0.7 WSW 9 13 5 7 1026.9 1027.0 13.8
20/05:30am 10.3 8.2 8.4 88 0.9 SSW 9 11 5 6 1026.8 1026.9 13.8
20/05:00am 11.0 9.1 8.9 87 1.0 SSW 9 13 5 7 1026.9 1027.0 13.8
20/04:30am 11.0 9.6 9.6 91 0.7 SSW 7 9 4 5 1026.9 1027.0 13.8
20/04:00am 10.4 8.6 9.3 93 0.5 SW 9 11 5 6 1026.6 1026.7 13.8
20/03:30am 10.6 8.4 9.5 93 0.6 SW 11 13 6 7 1026.4 1026.5 13.8
20/03:00am 10.9 8.5 10.0 94 0.5 WSW 13 19 7 10 1026.2 1026.3 13.8
20/02:57am 11.0 8.2 10.1 94 0.5 WSW 15 19 8 10 1026.2 1026.3 13.8
20/02:44am 10.9 8.9 10.1 95 0.4 SW 11 17 6 9 1026.2 1026.3 13.6
20/02:36am 10.9 8.1 10.1 95 0.4 SW 15 20 8 11 1026.2 1026.3 13.6
20/02:30am 10.8 8.0 10.0 95 0.4 WSW 15 20 8 11 1026.1 1026.2 13.4
20/02:21am 10.7 8.3 9.9 95 0.4 WSW 13 20 7 11 1026.1 1026.2 13.4
20/02:04am 10.9 8.1 10.1 95 0.4 WSW 15 20 8 11 1026.0 1026.1 13.0
20/02:00am 10.9 8.1 10.1 95 0.4 WSW 15 20 8 11 1025.9 1026.0 13.0
20/01:49am 10.7 8.3 10.1 96 0.3 WSW 13 19 7 10 1025.9 1026.0 12.8
20/01:34am 10.6 8.5 9.8 95 0.4 WSW 11 17 6 9 1025.7 1025.8 12.6
20/01:30am 10.6 8.5 9.8 95 0.4 WSW 11 17 6 9 1025.7 1025.8 12.6
20/01:17am 10.9 8.9 10.0 94 0.5 SW 11 15 6 8 1025.5 1025.6 12.4
20/01:00am 11.4 9.4 10.3 93 0.6 WSW 11 22 6 12 1025.4 1025.5 12.0
20/12:48am 12.0 9.8 10.7 92 0.7 SW 13 17 7 9 1025.2 1025.3 12.0
20/12:38am 12.0 9.4 10.7 92 0.7 SSW 15 24 8 13 1025.1 1025.2 12.0
20/12:30am 12.2 9.7 10.9 92 0.7 SSW 15 22 8 12 1025.1 1025.2 11.8
20/12:05am 9.9 8.4 9.0 94 0.4 WSW 7 13 4 7 1025.1 1025.2 11.6
20/12:00am 10.1 8.2 9.2 94 0.4 WSW 9 13 5 7 1025.0 1025.1 11.6
 
Date/Time
EST
Temp
°C
App
Temp
°C
Dew
Point
°C
Rel
Hum
%
Delta-T
°C
Wind Press
QNH
hPa
Press
MSL
hPa
Rain since
9am
mm
Dir  Spd
km/h
Gust
km/h
Spd
kts
Gust
kts
19/11:48pm 10.2 8.0 9.4 95 0.4 SW 11 20 6 11 1025.1 1025.2 11.4
19/11:30pm 9.9 7.6 9.0 94 0.4 WSW 11 17 6 9 1025.0 1025.1 11.0
19/11:00pm 9.6 7.2 8.7 94 0.4 SW 11 13 6 7 1025.1 1025.2 11.0
19/10:30pm 10.1 7.4 8.9 92 0.6 SW 13 17 7 9 1025.0 1025.1 11.0
19/10:00pm 10.4 7.8 9.3 93 0.5 SW 13 17 7 9 1025.2 1025.3 11.0
19/09:30pm 10.8 9.1 9.9 94 0.5 WSW 9 11 5 6 1025.3 1025.4 11.0
19/09:00pm 10.9 8.1 10.1 95 0.4 SW 15 19 8 10 1025.3 1025.4 10.6
19/08:38pm 10.9 8.9 10.0 94 0.5 SW 11 17 6 9 1025.1 1025.2 10.2
19/08:30pm 10.8 9.5 9.9 94 0.5 SW 7 11 4 6 1025.2 1025.3 10.2
19/08:08pm 11.2 8.8 10.0 92 0.6 SSW 13 17 7 9 1025.7 1025.8 8.0
19/08:00pm 11.2 8.8 10.0 92 0.6 SW 13 17 7 9 1025.4 1025.5 7.4
19/07:39pm 11.1 8.7 9.9 92 0.6 SW 13 26 7 14 1025.3 1025.4 7.4
19/07:30pm 11.1 9.0 9.9 92 0.6 SW 11 15 6 8 1025.4 1025.5 7.4
19/07:06pm 11.4 9.3 9.7 89 0.9 SW 11 17 6 9 1025.3 1025.4 6.2
19/07:00pm 11.5 9.0 9.6 88 1.0 SW 13 19 7 10 1025.2 1025.3 6.0
19/06:44pm 11.8 8.5 9.4 85 1.2 SW 17 28 9 15 1024.7 1024.8 6.0
19/06:31pm 12.0 9.3 9.0 82 1.5 SW 13 20 7 11 1024.6 1024.7 5.8
19/06:30pm 12.0 9.6 8.8 81 1.6 SW 11 20 6 11 1024.5 1024.6 5.8
19/06:00pm 12.4 9.5 8.3 76 2.0 SW 13 20 7 11 1023.8 1023.9 5.8
19/05:30pm 13.1 9.1 8.4 73 2.3 SSW 19 28 10 15 1023.3 1023.3 5.8
19/05:00pm 13.2 9.5 8.1 71 2.5 SW 17 28 9 15 1023.0 1023.0 5.8
19/04:30pm 13.9 9.7 8.3 69 2.8 SW 20 32 11 17 1022.4 1022.4 5.8
19/04:00pm 14.4 10.2 8.4 67 3.0 SSW 20 30 11 16 1022.5 1022.5 5.8
19/03:30pm 14.5 10.5 8.9 69 2.9 SSW 20 35 11 19 1022.4 1022.4 5.8
19/03:00pm 13.9 10.7 9.9 77 2.1 SW 17 24 9 13 1022.1 1022.1 5.8
19/02:30pm 12.9 9.7 10.1 83 1.4 SW 17 22 9 12 1022.0 1022.0 5.8
19/02:00pm 11.7 9.2 9.6 87 1.1 SW 13 19 7 10 1022.1 1022.1 5.8
19/01:32pm 11.5 7.9 9.9 90 0.8 SW 19 32 10 17 1022.2 1022.2 5.6
19/01:30pm 11.5 7.9 9.9 90 0.8 SW 19 32 10 17 1022.3 1022.3 5.6
19/01:07pm 11.5 8.8 9.1 85 1.2 S 13 37 7 20 1022.9 1022.9 1.4
19/01:00pm 12.3 10.1 9.5 83 1.4 SSW 11 20 6 11 1022.4 1022.4 0.4
19/12:30pm 12.0 9.0 9.4 84 1.3 SW 15 20 8 11 1022.1 1022.1 0.2
19/12:03pm 12.8 7.2 8.9 77 2.0 SSW 28 43 15 23 1022.5 1022.5 0.0
19/12:00pm 12.9 7.3 8.6 75 2.1 SSW 28 43 15 23 1022.5 1022.5 0.0
19/11:44am 14.0 8.4 8.8 71 2.6 SSW 28 46 15 25 1022.5 1022.5 0.0
19/11:43am 14.1 8.5 8.7 70 2.7 SSW 28 44 15 24 1022.5 1022.5 0.0
19/11:30am 13.9 10.5 9.3 74 2.4 SW 17 30 9 16 1022.4 1022.4 0.0
19/11:00am 14.2 9.4 8.8 70 2.7 SW 24 41 13 22 1022.4 1022.4 0.0
19/10:30am 13.7 9.8 9.4 75 2.2 SW 20 37 11 20 1022.3 1022.3 0.0
19/10:00am 12.7 8.8 9.5 81 1.6 SW 20 39 11 21 1022.2 1022.2 0.0
19/09:30am 11.5 8.8 9.1 85 1.2 SW 13 19 7 10 1022.2 1022.2 0.0
19/09:00am 10.4 7.5 8.3 87 1.0 WSW 13 19 7 10 1021.8 1021.8 5.0
19/08:30am 9.6 6.6 7.9 89 0.8 WSW 13 20 7 11 1021.2 1021.2 5.0
19/08:00am 9.5 6.3 8.3 92 0.6 WSW 15 20 8 11 1021.0 1021.0 5.0
19/07:30am 9.4 6.5 8.2 92 0.6 SW 13 19 7 10 1021.1 1021.1 5.0
19/07:00am 9.3 5.3 8.1 92 0.6 SW 19 26 10 14 1020.6 1020.6 4.2
19/06:30am 8.9 5.5 7.5 91 0.7 SW 15 22 8 12 1020.3 1020.3 3.4
19/06:19am 8.7 5.2 7.3 91 0.7 SW 15 20 8 11 1020.2 1020.2 3.2
19/06:06am 8.6 5.5 7.1 90 0.7 WSW 13 17 7 9 1020.0 1020.0 3.0
19/06:00am 8.6 5.5 7.1 90 0.7 SW 13 17 7 9 1020.0 1020.0 2.6
19/05:30am 8.4 5.3 7.2 92 0.6 WSW 13 19 7 10 1019.6 1019.6 2.2
19/05:00am 8.3 5.1 6.9 91 0.7 SW 13 20 7 11 1019.7 1019.7 1.8
19/04:30am 8.5 4.8 6.5 87 0.9 WSW 15 26 8 14 1019.5 1019.5 0.6

Latest Capital City Observations: Canberra | Sydney | Melbourne | Brisbane | Adelaide | Perth | Hobart | Darwin

Other Formats:

Comma delimited format used in spreadsheet applications
http://www.bom.gov.au/fwo/IDN60901/IDN60901.95761.axf

JavaScript Object Notation format (JSON) in row-major order
http://www.bom.gov.au/fwo/IDN60901/IDN60901.95761.json